Terminal Aerodrome Forecast
Issued by NWS

Home | Current Version | Previous Version | Text Only | Print | Product List | Glossary On
Versions: 1 2 3 4 5 6 7 8 9 10 11 12 13
000
FTUS45 KRIW 221700
TAFCOD
TAF
KCOD 221720Z 2218/2318 02007KT P6SM VCTS SCT035CB BKN050
     FM222100 01009KT P6SM -SHRA BKN020
     FM230800 36007KT P6SM VCSH FEW010 BKN050 OVC150
      AMD LTD TO CLD VIS AND WIND=

USA.gov is the U.S. government's official web portal to all federal, state and local government web resources and services.